createdAt,value
2017-05-25T00:00:09.321Z,5.32
2017-05-25T00:02:37.612Z,4.66
2017-05-25T00:05:06.735Z,5.10
2017-05-25T00:07:35.015Z,4.62
2017-05-25T00:10:04.062Z,5.60
2017-05-25T00:12:33.141Z,5.40
2017-05-25T00:15:01.424Z,4.30
2017-05-25T00:17:29.697Z,4.78
2017-05-25T00:19:58.929Z,5.16
2017-05-25T00:22:27.224Z,5.26
2017-05-25T00:24:56.256Z,4.96
2017-05-25T00:27:25.339Z,4.84
2017-05-25T00:29:54.631Z,4.96
2017-05-25T00:32:23.684Z,5.82
2017-05-25T00:34:52.781Z,5.40
2017-05-25T00:37:21.865Z,5.08
2017-05-25T00:39:50.913Z,4.88
2017-05-25T00:42:19.189Z,4.66
2017-05-25T00:44:48.277Z,6.18
2017-05-25T00:47:17.383Z,5.80
2017-05-25T00:49:46.457Z,5.58
2017-05-25T00:52:15.500Z,5.46
2017-05-25T00:54:44.557Z,5.78
2017-05-25T00:57:13.657Z,4.90
2017-05-25T00:59:42.727Z,5.26
2017-05-25T01:02:11.072Z,6.24
2017-05-25T01:04:39.344Z,6.16
2017-05-25T01:07:07.658Z,5.68
2017-05-25T01:09:36.733Z,4.88
2017-05-25T01:12:05.038Z,5.48
2017-05-25T01:14:34.080Z,5.30
2017-05-25T01:17:02.410Z,5.72
2017-05-25T01:19:31.477Z,6.32
2017-05-25T01:21:59.777Z,6.22
2017-05-25T01:24:28.096Z,5.82
2017-05-25T01:26:57.147Z,6.14
2017-05-25T01:29:26.198Z,5.62
2017-05-25T01:31:55.453Z,7.02
2017-05-25T01:34:24.499Z,6.66
2017-05-25T01:36:52.805Z,6.98
2017-05-25T01:39:21.855Z,5.94
2017-05-25T01:41:50.214Z,6.56
2017-05-25T01:44:18.494Z,6.74
2017-05-25T01:46:46.767Z,6.86
2017-05-25T01:49:15.861Z,6.68
2017-05-25T01:51:45.168Z,7.00
2017-05-25T01:54:13.448Z,6.68
2017-05-25T01:56:42.519Z,6.32
2017-05-25T01:59:11.621Z,7.90
2017-05-25T02:01:40.685Z,7.80
2017-05-25T02:04:09.752Z,7.76
2017-05-25T02:06:39.017Z,8.20
2017-05-25T02:09:08.177Z,7.36
2017-05-25T02:11:37.241Z,7.74
2017-05-25T02:14:06.308Z,8.90
2017-05-25T02:16:35.374Z,8.20
2017-05-25T02:19:04.501Z,9.54
2017-05-25T02:21:33.592Z,9.56
2017-05-25T02:24:02.654Z,9.98
2017-05-25T02:26:31.719Z,9.62
2017-05-25T02:29:00.789Z,9.40
2017-05-25T02:31:29.097Z,10.22
2017-05-25T02:33:57.420Z,9.94
2017-05-25T02:36:26.468Z,10.40
2017-05-25T02:38:55.530Z,10.14
2017-05-25T02:41:24.606Z,9.74
2017-05-25T02:43:52.893Z,11.14
2017-05-25T02:46:21.968Z,10.38
2017-05-25T02:48:51.302Z,10.40
2017-05-25T02:51:19.578Z,10.76
2017-05-25T02:53:47.969Z,11.06
2017-05-25T02:56:17.037Z,10.34
2017-05-25T02:58:46.357Z,10.88
2017-05-25T03:01:14.664Z,9.30
2017-05-25T03:03:43.720Z,10.72
2017-05-25T03:06:12.057Z,10.60
2017-05-25T03:08:41.115Z,10.72
2017-05-25T03:11:09.461Z,12.90
2017-05-25T03:13:37.796Z,13.88
2017-05-25T03:16:06.896Z,13.94
2017-05-25T03:18:35.955Z,13.60
2017-05-25T03:21:04.232Z,12.92
2017-05-25T03:23:33.315Z,13.92
2017-05-25T03:26:01.604Z,12.36
2017-05-25T03:28:30.699Z,13.66
2017-05-25T03:30:59.021Z,15.92
2017-05-25T03:33:28.092Z,13.46
2017-05-25T03:35:57.138Z,14.28
2017-05-25T03:38:26.425Z,13.68
2017-05-25T03:40:55.476Z,13.52
2017-05-25T03:43:24.577Z,13.88
2017-05-25T03:45:52.879Z,14.02
2017-05-25T03:48:22.008Z,14.56
2017-05-25T03:50:51.553Z,13.44
2017-05-25T03:53:20.636Z,15.38
2017-05-25T03:55:49.721Z,14.44
2017-05-25T03:58:18.777Z,14.24
2017-05-25T04:00:47.866Z,15.08
2017-05-25T04:03:16.920Z,15.10
2017-05-25T04:05:45.969Z,15.16
2017-05-25T04:08:15.070Z,15.06
2017-05-25T04:10:44.353Z,15.82
2017-05-25T04:13:13.426Z,15.14
2017-05-25T04:15:42.536Z,14.62
2017-05-25T04:18:11.584Z,15.02
2017-05-25T04:20:40.672Z,16.90
2017-05-25T04:23:09.025Z,15.50
2017-05-25T04:25:37.315Z,14.68
2017-05-25T04:28:06.407Z,16.22
2017-05-25T04:30:35.461Z,15.40
2017-05-25T04:33:03.772Z,16.60
2017-05-25T04:35:32.831Z,16.36
2017-05-25T04:38:01.150Z,16.42
2017-05-25T04:40:30.224Z,16.04
2017-05-25T04:42:58.532Z,16.96
2017-05-25T04:45:27.600Z,17.62
2017-05-25T04:47:55.909Z,17.48
2017-05-25T04:50:24.976Z,16.60
2017-05-25T04:52:54.057Z,17.82
2017-05-25T04:55:22.416Z,16.78
2017-05-25T04:57:50.729Z,17.18
2017-05-25T05:00:19.796Z,18.72
2017-05-25T05:02:48.872Z,16.86
2017-05-25T05:05:17.960Z,15.56
2017-05-25T05:07:47.000Z,16.72
2017-05-25T05:10:16.068Z,16.78
2017-05-25T05:12:45.130Z,16.80
2017-05-25T05:15:14.192Z,16.08
2017-05-25T05:17:43.284Z,17.70
2017-05-25T05:20:12.368Z,16.62
2017-05-25T05:22:41.448Z,15.72
2017-05-25T05:25:10.573Z,17.82
2017-05-25T05:27:38.894Z,18.78
2017-05-25T05:30:07.962Z,16.94
2017-05-25T05:32:37.017Z,17.20
2017-05-25T05:35:06.141Z,17.84
2017-05-25T05:37:34.428Z,17.32
2017-05-25T05:40:03.507Z,17.86
2017-05-25T05:42:32.587Z,18.52
2017-05-25T05:45:01.649Z,16.52
2017-05-25T05:47:30.704Z,16.08
2017-05-25T05:49:59.795Z,14.32
2017-05-25T05:52:28.879Z,15.38
2017-05-25T05:54:57.937Z,14.84
2017-05-25T05:57:27.009Z,13.88
2017-05-25T05:59:56.092Z,13.72
2017-05-25T06:02:25.169Z,14.40
2017-05-25T06:04:54.230Z,13.78
2017-05-25T06:07:22.512Z,13.36
2017-05-25T06:09:51.903Z,13.40
2017-05-25T06:12:20.233Z,13.18
2017-05-25T06:14:49.308Z,12.98
2017-05-25T06:17:17.619Z,13.10
2017-05-25T06:19:46.686Z,12.86
2017-05-25T06:22:15.784Z,10.98
2017-05-25T06:24:44.838Z,12.20
2017-05-25T06:27:13.152Z,11.88
2017-05-25T06:29:42.248Z,11.90
2017-05-25T06:32:11.366Z,12.10
2017-05-25T06:34:39.649Z,11.48
2017-05-25T06:37:08.724Z,11.42
2017-05-25T06:39:37.795Z,11.76
2017-05-25T06:42:06.868Z,11.66
2017-05-25T06:44:35.933Z,11.30
2017-05-25T06:47:04.986Z,11.04
2017-05-25T06:49:34.057Z,10.74
2017-05-25T06:52:02.408Z,11.30
2017-05-25T06:54:30.705Z,12.48
2017-05-25T06:56:59.765Z,11.60
2017-05-25T06:59:28.863Z,11.04
2017-05-25T07:01:57.906Z,12.14
2017-05-25T07:04:26.207Z,12.22
2017-05-25T07:06:54.514Z,10.68
2017-05-25T07:09:23.608Z,11.50
2017-05-25T07:11:52.221Z,11.12
2017-05-25T07:14:20.525Z,12.68
2017-05-25T07:16:49.820Z,10.58
2017-05-25T07:19:18.874Z,11.56
2017-05-25T07:21:48.020Z,9.90
2017-05-25T07:24:16.347Z,11.30
2017-05-25T07:26:44.648Z,12.06
2017-05-25T07:29:13.712Z,12.24
2017-05-25T07:31:42.825Z,11.94
2017-05-25T07:34:11.284Z,10.70
2017-05-25T07:36:40.332Z,12.04
2017-05-25T07:39:09.428Z,11.80
2017-05-25T07:41:38.505Z,11.16
2017-05-25T07:44:07.564Z,10.58
2017-05-25T07:46:35.848Z,10.22
2017-05-25T07:49:04.944Z,9.72
2017-05-25T07:51:33.257Z,11.54
2017-05-25T07:54:02.312Z,11.76
2017-05-25T07:56:31.385Z,13.32
2017-05-25T07:59:00.452Z,14.10
2017-05-25T08:01:28.755Z,17.16
2017-05-25T08:03:57.053Z,25.08
2017-05-25T08:06:25.335Z,29.18
2017-05-25T08:08:54.416Z,30.16
2017-05-25T08:11:22.743Z,36.86
2017-05-25T08:13:51.058Z,38.40
2017-05-25T08:16:20.114Z,44.98
2017-05-25T08:18:49.191Z,48.58
2017-05-25T08:21:17.514Z,46.68
2017-05-25T08:23:46.576Z,45.68
2017-05-25T08:26:14.867Z,36.50
2017-05-25T08:28:43.952Z,31.46
2017-05-25T08:31:13.008Z,32.00
2017-05-25T08:33:41.345Z,32.84
2017-05-25T08:36:10.421Z,31.48
2017-05-25T08:38:39.480Z,33.06
2017-05-25T08:41:08.559Z,30.38
2017-05-25T08:43:37.873Z,31.52
2017-05-25T08:46:06.168Z,28.74
2017-05-25T08:48:35.253Z,29.96
2017-05-25T08:51:03.592Z,30.68
2017-05-25T08:53:32.644Z,29.32
2017-05-25T08:56:01.700Z,27.90
2017-05-25T08:58:30.784Z,28.16
2017-05-25T09:00:59.841Z,27.78
2017-05-25T09:03:28.168Z,27.74
2017-05-25T09:05:57.246Z,29.20
2017-05-25T09:08:26.295Z,27.68
2017-05-25T09:10:54.600Z,28.88
2017-05-25T09:13:23.672Z,28.48
2017-05-25T09:15:52.753Z,29.04
2017-05-25T09:18:21.832Z,27.80
2017-05-25T09:20:50.155Z,26.26
2017-05-25T09:23:18.554Z,25.40
2017-05-25T09:25:46.874Z,25.36
2017-05-25T09:28:17.013Z,26.94
2017-05-25T09:30:46.095Z,23.70
2017-05-25T09:33:14.460Z,22.08
2017-05-25T09:35:43.528Z,20.38
2017-05-25T09:38:11.873Z,14.44
2017-05-25T09:40:40.941Z,13.18
2017-05-25T09:43:09.242Z,13.88
2017-05-25T09:45:38.424Z,14.02
2017-05-25T09:48:07.532Z,14.32
2017-05-25T09:50:36.585Z,13.42
2017-05-25T09:53:05.688Z,12.82
2017-05-25T09:55:33.977Z,12.86
2017-05-25T09:58:03.053Z,12.48
2017-05-25T10:00:32.139Z,13.40
2017-05-25T10:03:01.187Z,12.82
2017-05-25T10:05:30.294Z,11.72
2017-05-25T10:07:59.345Z,13.20
2017-05-25T10:10:28.412Z,11.40
2017-05-25T10:12:57.965Z,10.78
2017-05-25T10:15:26.282Z,12.16
2017-05-25T10:17:54.627Z,11.02
2017-05-25T10:20:23.720Z,12.40
2017-05-25T10:22:52.785Z,12.38
2017-05-25T10:25:21.854Z,13.28
2017-05-25T10:27:50.954Z,12.30
2017-05-25T10:30:20.009Z,12.18
2017-05-25T10:32:49.497Z,12.08
2017-05-25T10:35:17.816Z,11.94
2017-05-25T10:37:46.881Z,11.94
2017-05-25T10:40:15.991Z,11.72
2017-05-25T10:42:44.309Z,11.02
2017-05-25T10:45:13.381Z,10.96
2017-05-25T10:47:42.470Z,12.66
2017-05-25T10:50:11.580Z,11.36
2017-05-25T10:52:39.870Z,10.18
2017-05-25T10:55:08.190Z,10.46
2017-05-25T10:57:37.240Z,10.74
2017-05-25T11:00:06.289Z,11.64
2017-05-25T11:02:34.641Z,11.70
2017-05-25T11:05:03.773Z,11.04
2017-05-25T11:07:32.864Z,10.10
2017-05-25T11:10:01.965Z,11.42
2017-05-25T11:12:30.273Z,10.48
2017-05-25T11:14:58.574Z,9.74
2017-05-25T11:17:26.906Z,11.42
2017-05-25T11:19:55.997Z,10.22
2017-05-25T11:22:25.098Z,12.22
2017-05-25T11:24:54.145Z,9.78
2017-05-25T11:27:23.248Z,10.98
2017-05-25T11:29:52.307Z,10.22
2017-05-25T11:32:20.606Z,11.02
2017-05-25T11:34:48.917Z,10.90
2017-05-25T11:37:17.294Z,9.62
2017-05-25T11:39:46.390Z,11.40
2017-05-25T11:42:15.469Z,11.48
2017-05-25T11:44:44.535Z,11.90
2017-05-25T11:47:13.601Z,12.08
2017-05-25T11:49:42.668Z,11.78
2017-05-25T11:52:11.738Z,11.68
2017-05-25T11:54:40.807Z,10.96
2017-05-25T11:57:09.978Z,11.20
2017-05-25T11:59:39.030Z,9.12
2017-05-25T12:02:08.100Z,10.32
2017-05-25T12:04:37.176Z,12.78
2017-05-25T12:07:05.515Z,10.66
2017-05-25T12:09:34.577Z,10.36
2017-05-25T12:12:03.669Z,10.32
2017-05-25T12:14:32.746Z,10.92
2017-05-25T12:17:01.835Z,10.10
2017-05-25T12:19:30.877Z,9.54
2017-05-25T12:21:59.204Z,9.22
2017-05-25T12:24:28.258Z,9.98
2017-05-25T12:26:56.565Z,9.22
2017-05-25T12:29:25.637Z,10.72
2017-05-25T12:31:54.696Z,10.48
2017-05-25T12:34:22.993Z,8.32
2017-05-25T12:36:51.320Z,9.50
2017-05-25T12:39:20.404Z,12.90
2017-05-25T12:41:48.721Z,9.08
2017-05-25T12:44:17.812Z,9.00
2017-05-25T12:46:46.124Z,8.98
2017-05-25T12:49:15.186Z,9.02
2017-05-25T12:51:43.518Z,9.02
2017-05-25T12:54:12.605Z,9.24
2017-05-25T12:56:41.657Z,8.78
2017-05-25T12:59:10.808Z,9.24
2017-05-25T13:01:39.937Z,8.78
2017-05-25T13:04:08.274Z,8.02
2017-05-25T13:06:36.618Z,7.70
2017-05-25T13:09:05.724Z,10.70
2017-05-25T13:11:34.088Z,8.50
2017-05-25T13:14:02.401Z,7.98
2017-05-25T13:16:30.720Z,7.78
2017-05-25T13:18:59.762Z,8.86
2017-05-25T13:21:28.813Z,9.00
2017-05-25T13:23:57.889Z,9.88
2017-05-25T13:26:26.954Z,8.38
2017-05-25T13:28:55.999Z,8.00
2017-05-25T13:31:24.309Z,7.58
2017-05-25T13:33:52.598Z,9.26
2017-05-25T13:36:20.873Z,7.74
2017-05-25T13:38:49.963Z,8.70
2017-05-25T13:41:19.017Z,7.38
2017-05-25T13:43:48.102Z,6.68
2017-05-25T13:46:17.181Z,5.82
2017-05-25T13:48:46.231Z,6.32
2017-05-25T13:51:14.524Z,5.90
2017-05-25T13:53:43.585Z,5.54
2017-05-25T13:56:11.880Z,5.62
2017-05-25T13:58:40.959Z,5.98
2017-05-25T14:01:09.249Z,5.28
2017-05-25T14:03:38.308Z,4.20
2017-05-25T14:06:06.666Z,3.44
2017-05-25T14:08:35.716Z,3.92
2017-05-25T14:11:04.778Z,4.36
2017-05-25T14:13:33.844Z,3.86
2017-05-25T14:16:02.129Z,4.42
2017-05-25T14:18:31.179Z,4.44
2017-05-25T14:21:00.236Z,3.96
2017-05-25T14:23:28.512Z,4.32
2017-05-25T14:25:57.579Z,4.04
2017-05-25T14:28:26.633Z,5.20
2017-05-25T14:30:55.692Z,5.62
2017-05-25T14:33:24.761Z,4.56
2017-05-25T14:35:53.824Z,3.80
2017-05-25T14:38:22.893Z,3.70
2017-05-25T14:40:51.294Z,4.60
2017-05-25T14:43:20.374Z,7.26
2017-05-25T14:45:48.674Z,4.06
2017-05-25T14:48:17.750Z,4.50
2017-05-25T14:50:46.857Z,4.84
2017-05-25T14:53:15.935Z,4.74
2017-05-25T14:55:44.984Z,3.96
2017-05-25T14:58:14.060Z,5.18
2017-05-25T15:00:43.148Z,4.64
2017-05-25T15:03:11.526Z,5.00
2017-05-25T15:05:40.605Z,4.14
2017-05-25T15:08:09.682Z,4.70
2017-05-25T15:10:38.741Z,5.18
2017-05-25T15:13:07.040Z,5.50
2017-05-25T15:15:35.753Z,5.06
2017-05-25T15:18:04.816Z,4.70
2017-05-25T15:20:33.915Z,4.92
2017-05-25T15:23:03.003Z,4.94
2017-05-25T15:25:32.061Z,4.68
2017-05-25T15:28:01.147Z,4.96
2017-05-25T15:30:30.191Z,4.16
2017-05-25T15:32:58.481Z,4.74
2017-05-25T15:35:27.552Z,4.36
2017-05-25T15:37:55.834Z,5.56
2017-05-25T15:40:24.944Z,5.10
2017-05-25T15:42:53.201Z,5.82
2017-05-25T15:45:21.516Z,4.80
2017-05-25T15:47:49.834Z,5.72
2017-05-25T15:50:18.877Z,5.20
2017-05-25T15:52:48.017Z,4.30
2017-05-25T15:55:16.312Z,4.68
2017-05-25T15:57:45.429Z,4.70
2017-05-25T16:00:14.501Z,4.62
2017-05-25T16:02:43.561Z,4.40
2017-05-25T16:05:11.849Z,4.62
2017-05-25T16:07:40.162Z,5.88
2017-05-25T16:10:09.224Z,4.54
2017-05-25T16:12:37.505Z,5.12
2017-05-25T16:15:06.605Z,5.00
2017-05-25T16:17:35.649Z,4.82
2017-05-25T16:20:04.720Z,5.04
2017-05-25T16:22:33.065Z,5.14
2017-05-25T16:25:02.117Z,6.06
2017-05-25T16:27:31.166Z,5.48
2017-05-25T16:30:00.274Z,5.46
2017-05-25T16:32:28.573Z,6.02
2017-05-25T16:34:57.647Z,4.94
2017-05-25T16:37:25.958Z,4.18
2017-05-25T16:39:55.009Z,4.98
2017-05-25T16:42:24.093Z,5.38
2017-05-25T16:44:53.145Z,4.72
2017-05-25T16:47:22.225Z,4.66
2017-05-25T16:49:51.286Z,4.94
2017-05-25T16:52:20.327Z,4.80
2017-05-25T16:54:49.373Z,4.48
2017-05-25T16:57:18.465Z,4.16
2017-05-25T16:59:47.525Z,5.62
2017-05-25T17:02:16.583Z,5.36
2017-05-25T17:04:44.910Z,5.04
2017-05-25T17:07:14.005Z,4.68
2017-05-25T17:09:43.049Z,4.58
2017-05-25T17:12:11.372Z,5.28
2017-05-25T17:14:40.425Z,4.80
2017-05-25T17:17:09.521Z,9.68
2017-05-25T17:19:38.568Z,4.52
2017-05-25T17:22:07.087Z,4.12
2017-05-25T17:24:36.185Z,4.90
2017-05-25T17:27:05.225Z,4.90
2017-05-25T17:29:34.312Z,4.92
2017-05-25T17:32:02.622Z,4.06
2017-05-25T17:34:31.688Z,5.70
2017-05-25T17:37:00.810Z,4.42
2017-05-25T17:39:29.886Z,4.20
2017-05-25T17:41:58.932Z,4.76
2017-05-25T17:44:28.006Z,8.92
2017-05-25T17:46:57.081Z,3.82
2017-05-25T17:49:26.138Z,3.80
2017-05-25T17:51:54.417Z,5.44
2017-05-25T17:54:22.725Z,12.64
2017-05-25T17:56:51.221Z,6.42
2017-05-25T17:59:20.325Z,5.44
2017-05-25T18:01:48.603Z,3.48
2017-05-25T18:04:17.687Z,4.36
2017-05-25T18:06:45.993Z,5.38
2017-05-25T18:09:15.055Z,4.42
2017-05-25T18:11:43.333Z,6.44
2017-05-25T18:14:11.937Z,9.58
2017-05-25T18:16:41.020Z,4.78
2017-05-25T18:19:10.086Z,4.72
2017-05-25T18:21:39.145Z,4.80
2017-05-25T18:24:08.279Z,4.28
2017-05-25T18:26:37.365Z,4.22
2017-05-25T18:29:06.610Z,4.00
2017-05-25T18:31:34.927Z,4.22
2017-05-25T18:34:03.228Z,4.44
2017-05-25T18:36:31.532Z,4.64
2017-05-25T18:39:00.589Z,3.90
2017-05-25T18:41:28.897Z,4.10
2017-05-25T18:43:57.206Z,4.00
2017-05-25T18:46:26.263Z,5.12
2017-05-25T18:48:55.415Z,5.48
2017-05-25T18:51:24.495Z,4.36
2017-05-25T18:53:53.566Z,5.24
2017-05-25T18:56:22.670Z,3.80
2017-05-25T18:58:51.935Z,4.26
2017-05-25T19:01:20.252Z,4.32
2017-05-25T19:03:49.795Z,4.20
2017-05-25T19:06:18.857Z,3.96
2017-05-25T19:08:47.929Z,3.88
2017-05-25T19:11:17.001Z,3.62
2017-05-25T19:13:45.315Z,3.90
2017-05-25T19:16:14.795Z,3.68
2017-05-25T19:18:43.926Z,3.88
2017-05-25T19:21:12.220Z,4.16
2017-05-25T19:23:41.274Z,3.88
2017-05-25T19:26:09.606Z,3.94
2017-05-25T19:28:38.680Z,3.50
2017-05-25T19:31:07.721Z,3.62
2017-05-25T19:33:36.049Z,4.32
2017-05-25T19:36:05.116Z,3.50
2017-05-25T19:38:34.223Z,3.88
2017-05-25T19:41:03.348Z,3.90
2017-05-25T19:43:32.449Z,3.72
2017-05-25T19:46:00.733Z,3.74
2017-05-25T19:48:29.831Z,4.62
2017-05-25T19:51:00.206Z,5.02
2017-05-25T19:53:29.276Z,4.04
2017-05-25T19:55:58.329Z,4.50
2017-05-25T19:58:27.425Z,4.88
2017-05-25T20:00:56.476Z,6.78
2017-05-25T20:03:25.537Z,6.36
2017-05-25T20:05:54.618Z,5.92
2017-05-25T20:08:23.753Z,5.08
2017-05-25T20:10:52.816Z,5.12
2017-05-25T20:13:21.927Z,5.32
2017-05-25T20:15:51.032Z,4.66
2017-05-25T20:18:20.079Z,5.94
2017-05-25T20:20:49.638Z,5.38
2017-05-25T20:23:18.797Z,6.00
2017-05-25T20:25:48.454Z,5.66
2017-05-25T20:28:18.311Z,5.26
2017-05-25T20:30:47.351Z,5.06
2017-05-25T20:33:16.493Z,4.14
2017-05-25T20:35:45.583Z,5.70
2017-05-25T20:38:14.787Z,4.30
2017-05-25T20:40:43.850Z,4.82
2017-05-25T20:43:12.978Z,4.64
2017-05-25T20:45:42.041Z,4.22
2017-05-25T20:48:11.100Z,4.14
2017-05-25T20:50:40.190Z,4.42
2017-05-25T20:53:09.573Z,4.86
2017-05-25T20:55:38.650Z,4.14
2017-05-25T20:58:07.754Z,4.60
2017-05-25T21:00:37.125Z,3.92
2017-05-25T21:03:06.250Z,4.30
2017-05-25T21:05:35.316Z,4.48
2017-05-25T21:08:04.385Z,3.58
2017-05-25T21:10:33.474Z,3.40
2017-05-25T21:13:02.550Z,3.46
2017-05-25T21:15:31.639Z,3.50
2017-05-25T21:18:00.703Z,4.32
2017-05-25T21:20:29.825Z,4.04
2017-05-25T21:22:58.899Z,4.50
2017-05-25T21:25:27.968Z,4.14
2017-05-25T21:27:57.086Z,4.08
2017-05-25T21:30:26.129Z,4.44
2017-05-25T21:32:55.178Z,3.94
2017-05-25T21:35:24.370Z,4.40
2017-05-25T21:37:53.445Z,4.50
2017-05-25T21:40:22.492Z,4.24
2017-05-25T21:42:51.720Z,4.42
2017-05-25T21:45:20.784Z,4.14
2017-05-25T21:47:50.452Z,3.84
2017-05-25T21:50:19.520Z,4.22
2017-05-25T21:52:48.573Z,4.08
2017-05-25T21:55:17.629Z,4.10
2017-05-25T21:57:46.695Z,4.16
2017-05-25T22:00:15.786Z,3.74
2017-05-25T22:02:44.832Z,3.48
2017-05-25T22:05:13.893Z,4.20
2017-05-25T22:07:42.976Z,4.58
2017-05-25T22:10:12.028Z,4.52
2017-05-25T22:12:41.134Z,3.76
2017-05-25T22:15:10.176Z,4.42
2017-05-25T22:17:39.229Z,3.66
2017-05-25T22:20:08.323Z,3.94
2017-05-25T22:22:37.381Z,4.20
2017-05-25T22:25:06.487Z,3.66
2017-05-25T22:27:35.534Z,4.46
2017-05-25T22:30:04.588Z,3.74
2017-05-25T22:32:33.659Z,4.12
2017-05-25T22:35:02.744Z,4.38
2017-05-25T22:37:31.789Z,4.00
2017-05-25T22:40:00.863Z,4.78
2017-05-25T22:42:29.920Z,4.68
2017-05-25T22:44:58.964Z,5.38
2017-05-25T22:47:28.039Z,4.38
2017-05-25T22:49:57.089Z,5.24
2017-05-25T22:52:26.139Z,4.66
2017-05-25T22:54:55.206Z,5.22
2017-05-25T22:57:24.269Z,5.58
2017-05-25T22:59:53.344Z,5.40
2017-05-25T23:02:22.387Z,5.72
2017-05-25T23:04:51.552Z,4.78
2017-05-25T23:07:20.619Z,4.56
2017-05-25T23:09:50.441Z,5.22
2017-05-25T23:12:19.816Z,5.20
2017-05-25T23:14:48.876Z,5.34
2017-05-25T23:17:18.135Z,5.50
2017-05-25T23:19:47.230Z,5.06
2017-05-25T23:22:16.285Z,5.30
2017-05-25T23:24:45.349Z,6.00
2017-05-25T23:27:14.694Z,5.80
2017-05-25T23:29:44.240Z,5.06
2017-05-25T23:32:13.330Z,6.24
2017-05-25T23:34:42.390Z,5.54
2017-05-25T23:37:11.440Z,5.70
2017-05-25T23:39:40.507Z,5.74
2017-05-25T23:42:09.600Z,6.52
2017-05-25T23:44:38.660Z,5.72
2017-05-25T23:47:07.731Z,4.86
2017-05-25T23:49:36.784Z,4.58
2017-05-25T23:52:06.017Z,5.90
2017-05-25T23:54:35.085Z,5.26
2017-05-25T23:57:04.135Z,5.26
2017-05-25T23:59:33.210Z,5.36
